Time;durP1;ratioP1;P1;durP2;ratioP2;P2;SDS_P1;SDS_P2;PMS_P1;PMS_P2;Temp;Humidity;BMP_temperature;BMP_pressure;BME280_temperature;BME280_humidity;BME280_pressure;Samples;Min_cycle;Max_cycle;Signal;HPM_P1;HPM_P2
2021/05/10 00:02:12;;;;;;;;;;;10.90;73.40;;;;;;5047626;28;19955;-64
2021/05/10 00:04:38;;;;;;;;;;;10.90;73.40;;;;;;5048718;28;20024;-64
2021/05/10 00:07:04;;;;;;;;;;;10.90;73.60;;;;;;5049010;28;19929;-64
2021/05/10 00:09:30;;;;;;;;;;;10.90;73.50;;;;;;5048000;28;20047;-65
2021/05/10 00:11:56;;;;;;;;;;;10.90;73.60;;;;;;5064273;28;20375;-65
2021/05/10 00:14:38;;;;;;;;;;;10.90;73.90;;;;;;5048627;28;19925;-65
2021/05/10 00:17:04;;;;;;;;;;;10.70;74.00;;;;;;5047393;28;19936;-65
2021/05/10 00:19:30;;;;;;;;;;;10.70;74.60;;;;;;5048258;28;20012;-65
2021/05/10 00:21:56;;;;;;;;;;;10.60;74.70;;;;;;5048634;28;20019;-65
2021/05/10 00:24:22;;;;;;;;;;;10.60;74.70;;;;;;5047242;28;19936;-64
2021/05/10 00:26:48;;;;;;;;;;;10.60;74.70;;;;;;5048364;28;19968;-64
2021/05/10 00:29:17;;;;;;;;;;;10.60;74.90;;;;;;5048316;28;20023;-64
2021/05/10 00:31:44;;;;;;;;;;;10.50;75.60;;;;;;5048380;28;19951;-64
2021/05/10 00:34:09;;;;;;;;;;;10.50;75.40;;;;;;5048493;28;20008;-65
2021/05/10 00:36:35;;;;;;;;;;;10.50;75.50;;;;;;5047693;28;20031;-65
2021/05/10 00:39:01;;;;;;;;;;;10.50;75.70;;;;;;5046824;28;20375;-65
2021/05/10 00:41:27;;;;;;;;;;;10.40;75.90;;;;;;5047054;28;20007;-64
2021/05/10 00:43:53;;;;;;;;;;;10.40;76.10;;;;;;5048107;28;20031;-65
2021/05/10 00:46:19;;;;;;;;;;;10.40;76.30;;;;;;5064122;28;19932;-65
2021/05/10 00:48:45;;;;;;;;;;;10.30;76.60;;;;;;5048393;28;19928;-65
2021/05/10 00:51:10;;;;;;;;;;;10.30;76.80;;;;;;5048246;28;19992;-65
2021/05/10 00:53:36;;;;;;;;;;;10.20;77.10;;;;;;5048111;28;20023;-65
2021/05/10 00:56:02;;;;;;;;;;;10.10;77.60;;;;;;5048154;28;19971;-65
2021/05/10 00:58:28;;;;;;;;;;;10.10;77.90;;;;;;5047995;28;19964;-65
2021/05/10 01:03:44;;;;;;;;;;;10.00;78.40;;;;;;5169896;22;19928;-66
2021/05/10 01:06:10;;;;;;;;;;;10.00;78.80;;;;;;5046176;28;20019;-67
2021/05/10 01:08:36;;;;;;;;;;;9.90;79.20;;;;;;5047906;28;20012;-67
2021/05/10 01:11:01;;;;;;;;;;;9.90;79.60;;;;;;5052082;28;19925;-67
2021/05/10 01:13:28;;;;;;;;;;;9.80;79.10;;;;;;5047928;28;19925;-67
2021/05/10 01:15:53;;;;;;;;;;;9.80;79.30;;;;;;5047860;28;19963;-67
2021/05/10 01:18:19;;;;;;;;;;;9.80;79.50;;;;;;5047674;28;19929;-67
2021/05/10 01:20:46;;;;;;;;;;;9.70;79.70;;;;;;5051764;28;19929;-67
2021/05/10 01:23:12;;;;;;;;;;;9.70;80.00;;;;;;5047696;28;19947;-67
2021/05/10 01:25:38;;;;;;;;;;;9.60;80.20;;;;;;5048064;28;20391;-67
2021/05/10 01:28:04;;;;;;;;;;;9.60;80.30;;;;;;5047825;28;19929;-68
2021/05/10 01:30:34;;;;;;;;;;;9.60;80.50;;;;;;5048077;28;20345;-68
2021/05/10 01:33:01;;;;;;;;;;;9.60;80.20;;;;;;5050914;28;19985;-67
2021/05/10 01:35:28;;;;;;;;;;;9.60;80.30;;;;;;5050353;28;19971;-67
2021/05/10 01:37:55;;;;;;;;;;;9.60;80.10;;;;;;5042008;28;19968;-67
2021/05/10 01:40:21;;;;;;;;;;;9.60;80.50;;;;;;5051231;28;20359;-66
2021/05/10 01:42:47;;;;;;;;;;;9.60;80.70;;;;;;5051146;28;20427;-67
2021/05/10 01:45:13;;;;;;;;;;;9.50;81.00;;;;;;5051217;28;20039;-67
2021/05/10 01:47:39;;;;;;;;;;;9.50;81.60;;;;;;5051233;28;19929;-67
2021/05/10 01:50:23;;;;;;;;;;;9.40;81.80;;;;;;5033535;28;20043;-68
2021/05/10 01:52:49;;;;;;;;;;;9.40;82.10;;;;;;5040226;28;19929;-67
2021/05/10 01:55:16;;;;;;;;;;;9.40;82.50;;;;;;5051036;28;19936;-67
2021/05/10 01:57:47;;;;;;;;;;;9.30;82.60;;;;;;5051023;28;19936;-67
2021/05/10 02:00:15;;;;;;;;;;;9.30;82.80;;;;;;5051034;28;20023;-67
2021/05/10 02:02:43;;;;;;;;;;;9.30;83.00;;;;;;5050567;28;19939;-67
2021/05/10 02:05:15;;;;;;;;;;;9.30;82.80;;;;;;5050839;28;19924;-67
2021/05/10 02:07:42;;;;;;;;;;;9.40;82.50;;;;;;5050950;28;19975;-67
2021/05/10 02:10:10;;;;;;;;;;;9.40;82.30;;;;;;5050859;28;20043;-67
2021/05/10 02:12:36;;;;;;;;;;;9.40;82.50;;;;;;5050521;28;19929;-67
2021/05/10 02:15:04;;;;;;;;;;;9.30;82.60;;;;;;5050846;28;20299;-67
2021/05/10 02:17:30;;;;;;;;;;;9.30;82.50;;;;;;5050670;28;20019;-67
2021/05/10 02:19:56;;;;;;;;;;;9.40;82.50;;;;;;5050444;28;20322;-67
2021/05/10 02:22:21;;;;;;;;;;;9.40;82.60;;;;;;5050614;28;19959;-67
2021/05/10 02:24:47;;;;;;;;;;;9.30;82.80;;;;;;5050537;28;19925;-67
2021/05/10 02:27:13;;;;;;;;;;;9.30;83.00;;;;;;5050744;28;19983;-67
2021/05/10 02:29:39;;;;;;;;;;;9.30;82.90;;;;;;5050241;28;20502;-67
2021/05/10 02:32:05;;;;;;;;;;;9.30;83.20;;;;;;5050086;28;20402;-67
2021/05/10 02:34:31;;;;;;;;;;;9.20;83.40;;;;;;5050266;28;19972;-67
2021/05/10 02:36:57;;;;;;;;;;;9.20;83.80;;;;;;5050314;28;20384;-67
2021/05/10 02:39:23;;;;;;;;;;;9.10;84.40;;;;;;5049790;28;19931;-67
2021/05/10 02:41:49;;;;;;;;;;;9.00;84.80;;;;;;5050284;28;19959;-67
2021/05/10 02:44:14;;;;;;;;;;;8.90;85.40;;;;;;5030988;28;20307;-68
2021/05/10 02:46:41;;;;;;;;;;;8.90;85.80;;;;;;5049144;28;20062;-68
2021/05/10 02:49:06;;;;;;;;;;;8.80;86.10;;;;;;5049923;28;19968;-67
2021/05/10 02:51:32;;;;;;;;;;;8.80;86.40;;;;;;5049891;28;20377;-68
2021/05/10 02:53:58;;;;;;;;;;;8.80;86.80;;;;;;5050066;28;19928;-67
2021/05/10 02:56:24;;;;;;;;;;;8.80;87.10;;;;;;5049996;28;20017;-67
2021/05/10 02:58:50;;;;;;;;;;;8.70;87.40;;;;;;5049778;28;19943;-67
2021/05/10 03:01:16;;;;;;;;;;;8.70;87.80;;;;;;5049944;28;19964;-68
2021/05/10 03:03:42;;;;;;;;;;;8.60;87.80;;;;;;5049298;28;19931;-67
2021/05/10 03:06:07;;;;;;;;;;;8.60;87.80;;;;;;5049992;28;19974;-69
2021/05/10 03:08:33;;;;;;;;;;;8.70;87.60;;;;;;5031843;28;19933;-69
2021/05/10 03:10:59;;;;;;;;;;;8.70;87.20;;;;;;5032024;28;19971;-67
2021/05/10 03:13:25;;;;;;;;;;;8.90;86.90;;;;;;5049719;28;20400;-70
2021/05/10 03:15:51;;;;;;;;;;;8.90;86.50;;;;;;5049484;28;20063;-66
2021/05/10 03:18:17;;;;;;;;;;;9.00;86.10;;;;;;5031827;28;20065;-67
2021/05/10 03:20:42;;;;;;;;;;;9.00;85.90;;;;;;5049055;28;19925;-67
2021/05/10 03:23:08;;;;;;;;;;;9.00;85.60;;;;;;5049469;28;19924;-67
2021/05/10 03:25:34;;;;;;;;;;;9.00;85.60;;;;;;5049416;28;19968;-68
2021/05/10 03:28:00;;;;;;;;;;;9.00;85.80;;;;;;5029518;28;19939;-67
2021/05/10 03:30:26;;;;;;;;;;;9.00;85.90;;;;;;5049277;28;20015;-68
2021/05/10 03:32:53;;;;;;;;;;;9.10;85.40;;;;;;5031493;28;20295;-67
2021/05/10 03:35:19;;;;;;;;;;;9.10;85.20;;;;;;5049268;28;20007;-67
2021/05/10 03:37:45;;;;;;;;;;;9.10;85.30;;;;;;5049187;28;20006;-67
2021/05/10 03:40:12;;;;;;;;;;;9.20;85.20;;;;;;5049036;28;19933;-68
2021/05/10 03:42:38;;;;;;;;;;;9.20;85.20;;;;;;5049159;28;20391;-68
2021/05/10 03:45:05;;;;;;;;;;;9.30;85.00;;;;;;5049000;28;19925;-70
2021/05/10 03:47:40;;;;;;;;;;;9.30;85.00;;;;;;5049179;28;20304;-68
2021/05/10 03:50:10;;;;;;;;;;;9.30;85.10;;;;;;5049086;28;20455;-67
2021/05/10 03:52:37;;;;;;;;;;;9.40;85.00;;;;;;5048951;28;19924;-68
2021/05/10 03:55:03;;;;;;;;;;;9.50;85.40;;;;;;5048806;28;20418;-68
2021/05/10 03:57:29;;;;;;;;;;;9.50;84.70;;;;;;5048804;28;20028;-67
2021/05/10 03:59:54;;;;;;;;;;;9.60;85.10;;;;;;5048990;28;20020;-68
2021/05/10 04:02:21;;;;;;;;;;;9.70;84.60;;;;;;5048427;28;20016;-69
2021/05/10 04:05:17;;;;;;;;;;;9.80;83.60;;;;;;5048431;28;20388;-67
2021/05/10 04:07:42;;;;;;;;;;;9.90;83.20;;;;;;5048286;28;19925;-68
2021/05/10 04:15:34;;;;;;;;;;;10.20;82.70;;;;;;5048277;28;20059;-67
2021/05/10 04:18:00;;;;;;;;;;;10.30;82.00;;;;;;5048715;28;20051;-67
2021/05/10 04:20:26;;;;;;;;;;;10.40;81.50;;;;;;5048600;28;19932;-67
2021/05/10 04:22:52;;;;;;;;;;;10.40;82.30;;;;;;5048033;28;19933;-68
2021/05/10 04:25:18;;;;;;;;;;;10.50;81.90;;;;;;5048408;28;19932;-68
2021/05/10 04:27:46;;;;;;;;;;;10.50;81.80;;;;;;5048598;28;19929;-67
2021/05/10 04:30:12;;;;;;;;;;;10.60;81.30;;;;;;5047159;28;20395;-67
2021/05/10 04:32:38;;;;;;;;;;;10.70;80.70;;;;;;5047889;28;19928;-68
2021/05/10 04:35:04;;;;;;;;;;;10.70;81.10;;;;;;5048084;28;20285;-67
2021/05/10 04:37:30;;;;;;;;;;;10.80;81.10;;;;;;5048121;28;20025;-68
2021/05/10 04:39:56;;;;;;;;;;;10.90;81.20;;;;;;5030336;28;20414;-68
2021/05/10 04:42:22;;;;;;;;;;;10.90;81.20;;;;;;5030709;28;19929;-68
2021/05/10 04:44:49;;;;;;;;;;;11.00;80.70;;;;;;5048058;28;20015;-68
2021/05/10 04:47:15;;;;;;;;;;;11.10;79.70;;;;;;5048302;28;19928;-68
2021/05/10 04:49:41;;;;;;;;;;;11.20;78.30;;;;;;5029245;28;19935;-68
2021/05/10 04:52:07;;;;;;;;;;;11.30;77.70;;;;;;5030305;28;19936;-67
2021/05/10 04:54:33;;;;;;;;;;;11.40;77.90;;;;;;5028792;28;20352;-67
2021/05/10 04:56:58;;;;;;;;;;;11.50;77.40;;;;;;5047308;28;19929;-67
2021/05/10 04:59:24;;;;;;;;;;;11.60;76.80;;;;;;5047783;28;20464;-69
2021/05/10 05:01:50;;;;;;;;;;;11.70;76.30;;;;;;5048148;28;20202;-67
2021/05/10 05:04:16;;;;;;;;;;;11.80;75.90;;;;;;5047712;28;20350;-66
2021/05/10 05:06:42;;;;;;;;;;;11.90;76.80;;;;;;5049477;28;19960;-67
2021/05/10 05:09:08;;;;;;;;;;;11.90;75.50;;;;;;5050740;28;19925;-68
2021/05/10 05:11:35;;;;;;;;;;;12.10;75.30;;;;;;5051852;28;19932;-68
2021/05/10 05:14:01;;;;;;;;;;;12.10;75.30;;;;;;5051551;28;19979;-70
2021/05/10 05:16:26;;;;;;;;;;;12.30;74.70;;;;;;5033170;28;19956;-76
2021/05/10 05:18:52;;;;;;;;;;;12.40;74.20;;;;;;5033099;28;20383;-67
2021/05/10 05:21:18;;;;;;;;;;;12.60;72.40;;;;;;5025575;28;19935;-68
2021/05/10 05:23:44;;;;;;;;;;;12.70;72.90;;;;;;5033294;28;20027;-68
2021/05/10 05:26:10;;;;;;;;;;;12.80;71.90;;;;;;5051377;28;19933;-68
2021/05/10 05:28:36;;;;;;;;;;;13.00;71.60;;;;;;5033359;28;19928;-68
2021/05/10 05:31:02;;;;;;;;;;;13.20;70.40;;;;;;5051329;28;19971;-70
2021/05/10 05:33:28;;;;;;;;;;;13.30;69.70;;;;;;5051811;28;19929;-69
2021/05/10 05:35:54;;;;;;;;;;;13.50;70.00;;;;;;5050097;28;20019;-69
2021/05/10 05:38:20;;;;;;;;;;;13.70;68.00;;;;;;5050783;28;19928;-71
2021/05/10 05:40:46;;;;;;;;;;;13.90;66.50;;;;;;5050056;28;19932;-68
2021/05/10 05:43:13;;;;;;;;;;;14.10;66.00;;;;;;5050790;28;19924;-67
2021/05/10 05:45:40;;;;;;;;;;;14.40;66.30;;;;;;5033543;28;19929;-68
2021/05/10 05:48:07;;;;;;;;;;;14.50;65.70;;;;;;5051160;28;19968;-69
2021/05/10 05:50:33;;;;;;;;;;;14.80;65.60;;;;;;5051461;28;19929;-68
2021/05/10 05:52:59;;;;;;;;;;;15.00;65.50;;;;;;5051127;28;19925;-68
2021/05/10 05:55:26;;;;;;;;;;;15.30;65.30;;;;;;5048314;28;19998;-68
2021/05/10 05:57:52;;;;;;;;;;;15.60;62.10;;;;;;5050662;28;20360;-68
2021/05/10 06:00:18;;;;;;;;;;;15.80;62.20;;;;;;5050979;28;20031;-69
2021/05/10 06:02:43;;;;;;;;;;;16.10;61.20;;;;;;5050742;28;19924;-69
2021/05/10 06:05:10;;;;;;;;;;;16.30;60.90;;;;;;5033140;28;20427;-69
2021/05/10 06:07:40;;;;;;;;;;;16.40;59.20;;;;;;5050820;28;20043;-69
2021/05/10 06:10:06;;;;;;;;;;;16.50;58.60;;;;;;5050733;28;20400;-69
2021/05/10 06:12:32;;;;;;;;;;;16.60;58.00;;;;;;5050795;28;20074;-69
2021/05/10 06:14:58;;;;;;;;;;;16.70;58.10;;;;;;5050620;28;19925;-69
2021/05/10 06:17:24;;;;;;;;;;;16.90;58.00;;;;;;5050386;28;19928;-69
2021/05/10 06:19:50;;;;;;;;;;;17.30;57.10;;;;;;5049829;28;19975;-69
2021/05/10 06:22:16;;;;;;;;;;;17.70;55.90;;;;;;5050099;28;20368;-70
2021/05/10 06:24:42;;;;;;;;;;;18.10;54.90;;;;;;5050314;28;19929;-70
2021/05/10 06:27:08;;;;;;;;;;;18.50;54.10;;;;;;5050452;28;20405;-70
2021/05/10 06:29:34;;;;;;;;;;;18.90;52.50;;;;;;5050722;28;20015;-68
2021/05/10 06:32:00;;;;;;;;;;;19.60;50.40;;;;;;5050211;28;20309;-67
2021/05/10 06:34:25;;;;;;;;;;;20.10;49.70;;;;;;5050617;28;19932;-64
2021/05/10 06:36:52;;;;;;;;;;;20.80;49.60;;;;;;5050171;28;20408;-64
2021/05/10 06:39:17;;;;;;;;;;;22.00;47.30;;;;;;5050042;28;20358;-65
2021/05/10 06:41:43;;;;;;;;;;;22.70;46.60;;;;;;5048798;28;19925;-64
2021/05/10 06:44:10;;;;;;;;;;;22.90;45.70;;;;;;5047173;28;19970;-66
2021/05/10 06:46:36;;;;;;;;;;;22.90;44.30;;;;;;5046165;28;20063;-64
2021/05/10 06:49:02;;;;;;;;;;;22.80;43.30;;;;;;5050102;28;20002;-63
2021/05/10 06:51:28;;;;;;;;;;;23.30;43.20;;;;;;5049722;28;19976;-74
2021/05/10 06:53:54;;;;;;;;;;;23.70;42.90;;;;;;5032091;28;19975;-79
2021/05/10 06:56:20;;;;;;;;;;;23.90;42.00;;;;;;5049493;28;19978;-69
2021/05/10 06:58:45;;;;;;;;;;;24.30;42.40;;;;;;5049336;28;20014;-70
2021/05/10 07:01:11;;;;;;;;;;;24.60;41.80;;;;;;5049169;28;19933;-71
2021/05/10 07:03:37;;;;;;;;;;;25.20;41.20;;;;;;5031803;28;19936;-85
2021/05/10 07:06:03;;;;;;;;;;;25.40;40.60;;;;;;5049763;28;19928;-71
2021/05/10 07:08:29;;;;;;;;;;;26.50;39.30;;;;;;5031593;28;19928;-70
2021/05/10 07:10:55;;;;;;;;;;;27.00;39.60;;;;;;5048927;28;20037;-70
2021/05/10 07:13:22;;;;;;;;;;;26.90;38.80;;;;;;5049294;28;20043;-71
2021/05/10 07:15:48;;;;;;;;;;;26.30;37.80;;;;;;5031534;28;19982;-72
2021/05/10 07:18:14;;;;;;;;;;;25.90;39.00;;;;;;5031400;28;19979;-70
2021/05/10 07:20:41;;;;;;;;;;;25.70;39.80;;;;;;5049327;28;20308;-70
2021/05/10 07:23:07;;;;;;;;;;;24.90;39.90;;;;;;5049278;28;19925;-71
2021/05/10 07:25:34;;;;;;;;;;;24.00;40.70;;;;;;5031755;28;19971;-70
2021/05/10 07:28:00;;;;;;;;;;;23.50;42.60;;;;;;5049119;28;19929;-68
2021/05/10 07:30:26;;;;;;;;;;;23.30;42.00;;;;;;5047807;28;19981;-68
2021/05/10 07:32:52;;;;;;;;;;;23.70;43.40;;;;;;5048879;28;20011;-68
2021/05/10 07:35:18;;;;;;;;;;;23.60;40.70;;;;;;5047793;28;20016;-67
2021/05/10 07:37:44;;;;;;;;;;;23.90;42.20;;;;;;5028293;28;20372;-67
2021/05/10 07:40:11;;;;;;;;;;;23.50;41.40;;;;;;5030515;28;19982;-68
2021/05/10 07:42:36;;;;;;;;;;;23.20;42.20;;;;;;5048891;28;19928;-70
2021/05/10 07:45:03;;;;;;;;;;;22.80;42.50;;;;;;5049097;28;19924;-69
2021/05/10 07:47:30;;;;;;;;;;;22.90;42.30;;;;;;5048371;28;19935;-69
2021/05/10 07:49:57;;;;;;;;;;;22.70;41.40;;;;;;5048792;28;19936;-65
2021/05/10 07:52:23;;;;;;;;;;;23.00;41.10;;;;;;5048577;28;19960;-68
2021/05/10 07:54:49;;;;;;;;;;;23.00;41.70;;;;;;5048579;28;20380;-64
2021/05/10 07:57:15;;;;;;;;;;;23.00;41.00;;;;;;5048637;28;19967;-66
2021/05/10 07:59:41;;;;;;;;;;;22.90;41.50;;;;;;5030604;28;19932;-67
2021/05/10 08:02:07;;;;;;;;;;;23.00;40.90;;;;;;5030613;28;20371;-68
2021/05/10 08:04:32;;;;;;;;;;;23.20;40.70;;;;;;5030913;28;20023;-67
2021/05/10 08:06:58;;;;;;;;;;;23.20;41.50;;;;;;5048700;28;19929;-67
2021/05/10 08:09:24;;;;;;;;;;;23.20;40.70;;;;;;5048231;28;19976;-67
2021/05/10 08:11:50;;;;;;;;;;;23.20;40.20;;;;;;5029232;28;19979;-66
2021/05/10 08:14:17;;;;;;;;;;;23.10;42.10;;;;;;5048363;28;19978;-63
2021/05/10 08:16:44;;;;;;;;;;;23.50;40.40;;;;;;5048153;28;20048;-61
2021/05/10 08:19:12;;;;;;;;;;;23.90;39.80;;;;;;5047608;28;20002;-62
2021/05/10 08:21:41;;;;;;;;;;;24.10;39.80;;;;;;5048435;28;19935;-63
2021/05/10 08:24:07;;;;;;;;;;;24.20;39.20;;;;;;5048083;28;20003;-62
2021/05/10 08:26:33;;;;;;;;;;;24.10;38.10;;;;;;5048304;28;19967;-62
2021/05/10 08:28:59;;;;;;;;;;;23.90;38.80;;;;;;5048163;28;20402;-62
2021/05/10 08:31:25;;;;;;;;;;;24.10;38.80;;;;;;5047915;28;19929;-69
2021/05/10 08:33:51;;;;;;;;;;;24.70;37.40;;;;;;5048362;28;19933;-66
2021/05/10 08:36:18;;;;;;;;;;;25.10;37.60;;;;;;5048350;28;19936;-63
2021/05/10 08:38:44;;;;;;;;;;;25.30;36.40;;;;;;5045445;28;19998;-62
2021/05/10 08:41:10;;;;;;;;;;;25.30;35.40;;;;;;5050025;28;19925;-63
2021/05/10 08:43:37;;;;;;;;;;;25.00;36.20;;;;;;5052127;28;19940;-63
2021/05/10 08:46:05;;;;;;;;;;;25.30;36.50;;;;;;5052156;28;20019;-63
2021/05/10 08:48:31;;;;;;;;;;;25.40;36.00;;;;;;5049882;28;19939;-63
2021/05/10 08:50:58;;;;;;;;;;;24.90;36.20;;;;;;5051970;28;19932;-63
2021/05/10 08:53:34;;;;;;;;;;;24.70;37.20;;;;;;5052169;28;20031;-63
2021/05/10 08:55:59;;;;;;;;;;;24.80;36.70;;;;;;5052343;28;19975;-64
2021/05/10 08:58:26;;;;;;;;;;;25.20;36.50;;;;;;5051978;28;20051;-63
2021/05/10 09:00:53;;;;;;;;;;;25.40;36.30;;;;;;5051870;28;20303;-64
2021/05/10 09:03:19;;;;;;;;;;;25.70;36.20;;;;;;5033988;28;19925;-63
2021/05/10 09:05:46;;;;;;;;;;;26.00;35.90;;;;;;5052008;28;20071;-64
2021/05/10 09:08:14;;;;;;;;;;;26.40;35.30;;;;;;5051430;28;19936;-63
2021/05/10 09:10:39;;;;;;;;;;;26.60;34.90;;;;;;5051727;28;20019;-67
2021/05/10 09:13:05;;;;;;;;;;;26.60;35.60;;;;;;5051417;28;20105;-69
2021/05/10 09:15:36;;;;;;;;;;;27.10;35.90;;;;;;5051457;28;19946;-66
2021/05/10 09:18:03;;;;;;;;;;;27.40;34.30;;;;;;5051778;28;19936;-66
2021/05/10 09:20:34;;;;;;;;;;;26.90;35.10;;;;;;5051338;28;20316;-66
2021/05/10 09:23:01;;;;;;;;;;;26.70;34.20;;;;;;5051817;28;20050;-65
2021/05/10 09:25:37;;;;;;;;;;;26.70;34.80;;;;;;5051270;28;19928;-65
2021/05/10 09:28:10;;;;;;;;;;;26.40;36.20;;;;;;5048706;28;19972;-60
2021/05/10 09:30:36;;;;;;;;;;;26.10;36.10;;;;;;5050875;28;19936;-62
2021/05/10 09:33:03;;;;;;;;;;;25.90;36.50;;;;;;5047867;28;19926;-62
2021/05/10 09:35:29;;;;;;;;;;;26.30;35.80;;;;;;5045901;28;20004;-70
2021/05/10 09:38:03;;;;;;;;;;;26.00;36.30;;;;;;5047616;28;19929;-61
2021/05/10 09:40:52;;;;;;;;;;;26.60;36.00;;;;;;5050595;28;20020;-65
2021/05/10 09:43:19;;;;;;;;;;;27.10;34.50;;;;;;5045673;28;19928;-66
2021/05/10 09:45:52;;;;;;;;;;;27.40;34.60;;;;;;5051083;28;20050;-64
2021/05/10 09:48:18;;;;;;;;;;;28.30;33.20;;;;;;5051048;28;20051;-68
2021/05/10 09:50:48;;;;;;;;;;;28.00;34.90;;;;;;5033010;28;19929;-62
2021/05/10 09:53:27;;;;;;;;;;;27.60;33.60;;;;;;5050193;28;19984;-62
2021/05/10 09:55:54;;;;;;;;;;;27.30;34.30;;;;;;5032743;28;20011;-65
2021/05/10 09:58:21;;;;;;;;;;;27.80;35.50;;;;;;5050631;28;19972;-63
2021/05/10 10:00:52;;;;;;;;;;;28.10;33.50;;;;;;5050967;28;19980;-63
2021/05/10 10:03:22;;;;;;;;;;;27.90;34.20;;;;;;5050348;28;19925;-64
2021/05/10 10:05:49;;;;;;;;;;;28.00;34.10;;;;;;5050944;28;19963;-64
2021/05/10 10:08:15;;;;;;;;;;;28.10;34.70;;;;;;5050820;28;19931;-63
2021/05/10 10:10:41;;;;;;;;;;;28.50;34.10;;;;;;5049077;28;20289;-71
2021/05/10 10:13:07;;;;;;;;;;;28.60;33.40;;;;;;5050228;28;19975;-66
2021/05/10 10:15:33;;;;;;;;;;;28.50;32.70;;;;;;5032648;28;20027;-74
2021/05/10 10:18:01;;;;;;;;;;;28.20;33.50;;;;;;5049326;28;20020;-74
2021/05/10 10:20:28;;;;;;;;;;;28.30;33.70;;;;;;5032997;28;20011;-76
2021/05/10 10:22:54;;;;;;;;;;;28.20;33.80;;;;;;5032292;28;19929;-65
2021/05/10 10:25:21;;;;;;;;;;;28.40;34.30;;;;;;5050501;28;19936;-78
2021/05/10 10:27:47;;;;;;;;;;;28.70;34.20;;;;;;5032482;28;19968;-68
2021/05/10 10:30:17;;;;;;;;;;;28.80;34.50;;;;;;5050059;28;20354;-69
2021/05/10 10:32:44;;;;;;;;;;;29.20;33.60;;;;;;5041175;28;19925;-69
2021/05/10 10:35:12;;;;;;;;;;;29.70;32.20;;;;;;5049952;28;20728;-70
2021/05/10 10:37:37;;;;;;;;;;;29.70;32.90;;;;;;5049627;28;20423;-66
2021/05/10 10:40:14;;;;;;;;;;;29.90;33.90;;;;;;5048510;28;19948;-68
2021/05/10 10:42:40;;;;;;;;;;;30.30;33.00;;;;;;5045780;28;20016;-62
2021/05/10 10:45:06;;;;;;;;;;;30.80;32.70;;;;;;5057636;28;20023;-70
2021/05/10 10:47:43;;;;;;;;;;;32.00;31.70;;;;;;5049389;28;19968;-62
2021/05/10 10:50:13;;;;;;;;;;;32.30;31.60;;;;;;5042529;28;19967;-66
2021/05/10 10:52:47;;;;;;;;;;;32.60;30.60;;;;;;5047734;28;20012;-65
2021/05/10 10:55:13;;;;;;;;;;;33.10;30.30;;;;;;5032056;28;20015;-62
2021/05/10 10:57:39;;;;;;;;;;;33.50;29.70;;;;;;5044594;28;19978;-66
2021/05/10 11:00:06;;;;;;;;;;;33.40;29.80;;;;;;5044241;28;19924;-62
2021/05/10 11:02:46;;;;;;;;;;;33.80;29.90;;;;;;5039877;28;19974;-63
2021/05/10 11:05:14;;;;;;;;;;;33.30;29.00;;;;;;5046237;28;19929;-63
2021/05/10 11:08:03;;;;;;;;;;;33.10;29.50;;;;;;5037516;28;20138;-67
2021/05/10 11:10:43;;;;;;;;;;;33.50;29.30;;;;;;5044044;28;19925;-66
2021/05/10 11:13:09;;;;;;;;;;;32.70;29.90;;;;;;5043587;28;19936;-67
2021/05/10 11:15:35;;;;;;;;;;;32.60;30.20;;;;;;5040288;28;19929;-67
2021/05/10 11:18:02;;;;;;;;;;;31.90;30.10;;;;;;5037919;28;19939;-68
2021/05/10 11:20:38;;;;;;;;;;;30.70;30.70;;;;;;5034410;28;19932;-68
2021/05/10 11:23:23;;;;;;;;;;;29.70;30.70;;;;;;5041611;28;19936;-68
2021/05/10 11:25:49;;;;;;;;;;;28.20;32.40;;;;;;5024783;28;20345;-69
2021/05/10 11:28:24;;;;;;;;;;;27.60;33.10;;;;;;5031617;28;19941;-73
2021/05/10 11:31:03;;;;;;;;;;;27.20;34.00;;;;;;5046175;28;19975;-70
2021/05/10 11:33:59;;;;;;;;;;;27.10;33.70;;;;;;5035655;28;20622;-69
2021/05/10 11:36:32;;;;;;;;;;;26.70;35.10;;;;;;5008865;28;20427;-80
2021/05/10 11:38:58;;;;;;;;;;;26.40;36.70;;;;;;5029454;28;20550;-76
2021/05/10 11:41:36;;;;;;;;;;;26.50;35.90;;;;;;5027128;28;19960;-71
2021/05/10 11:44:03;;;;;;;;;;;26.70;34.30;;;;;;5042249;28;20023;-71
2021/05/10 11:46:39;;;;;;;;;;;26.40;35.10;;;;;;5038969;28;19979;-72
2021/05/10 11:49:06;;;;;;;;;;;26.30;34.90;;;;;;5035191;28;20020;-71
2021/05/10 11:51:34;;;;;;;;;;;26.40;34.60;;;;;;5027842;28;20475;-75
2021/05/10 11:54:04;;;;;;;;;;;26.60;35.40;;;;;;5031184;28;19967;-73
2021/05/10 11:56:33;;;;;;;;;;;26.70;34.70;;;;;;5045688;28;19965;-71
2021/05/10 12:01:48;;;;;;;;;;;26.10;34.40;;;;;;5016413;28;20281;-74
2021/05/10 12:04:25;;;;;;;;;;;25.80;35.90;;;;;;5043865;28;19935;-72
2021/05/10 12:06:51;;;;;;;;;;;25.80;34.90;;;;;;5019338;28;20047;-73
2021/05/10 12:09:56;;;;;;;;;;;25.80;35.20;;;;;;5043160;28;20463;-75
2021/05/10 12:12:28;;;;;;;;;;;25.90;35.40;;;;;;4986702;28;20016;-75
2021/05/10 12:14:55;;;;;;;;;;;26.40;35.80;;;;;;5029705;28;19928;-72
2021/05/10 12:17:26;;;;;;;;;;;26.50;35.20;;;;;;5024356;28;20083;-74
2021/05/10 12:19:52;;;;;;;;;;;26.60;34.60;;;;;;5038844;28;20019;-75
2021/05/10 12:22:19;;;;;;;;;;;26.70;35.10;;;;;;5028801;28;19933;-75
2021/05/10 12:25:04;;;;;;;;;;;27.10;34.00;;;;;;5027475;28;20780;-75
2021/05/10 12:27:38;;;;;;;;;;;27.00;34.70;;;;;;5029562;28;19965;-73
2021/05/10 12:30:28;;;;;;;;;;;26.60;35.00;;;;;;5041210;28;19936;-74
2021/05/10 12:33:05;;;;;;;;;;;26.50;35.90;;;;;;5032950;28;19987;-72
2021/05/10 12:35:32;;;;;;;;;;;26.90;34.60;;;;;;5038637;28;19940;-71
2021/05/10 12:37:59;;;;;;;;;;;26.60;34.70;;;;;;5037419;28;20031;-72
2021/05/10 12:40:30;;;;;;;;;;;26.30;34.40;;;;;;5031824;28;19936;-72
2021/05/10 12:43:08;;;;;;;;;;;26.30;35.30;;;;;;5020975;28;20004;-76
2021/05/10 12:45:35;;;;;;;;;;;26.40;35.10;;;;;;5030270;28;19925;-74
2021/05/10 12:48:39;;;;;;;;;;;26.40;35.50;;;;;;5012442;28;19932;-76
2021/05/10 12:51:12;;;;;;;;;;;26.30;35.80;;;;;;4982407;28;20051;-76
2021/05/10 12:53:42;;;;;;;;;;;26.60;35.50;;;;;;5031841;28;20004;-75
2021/05/10 12:56:12;;;;;;;;;;;26.80;35.00;;;;;;5030634;28;19929;-75
2021/05/10 12:58:38;;;;;;;;;;;26.90;35.10;;;;;;5031077;28;20383;-74
2021/05/10 13:01:14;;;;;;;;;;;26.90;35.00;;;;;;5031787;28;19932;-73
2021/05/10 13:03:41;;;;;;;;;;;26.50;35.00;;;;;;5026512;28;20476;-75
2021/05/10 13:06:07;;;;;;;;;;;26.30;35.80;;;;;;5016589;28;19929;-75
2021/05/10 13:08:40;;;;;;;;;;;26.30;35.80;;;;;;5035755;28;19925;-75
2021/05/10 13:11:11;;;;;;;;;;;26.40;34.20;;;;;;5020786;28;20032;-76
2021/05/10 13:13:43;;;;;;;;;;;26.80;35.20;;;;;;5037078;28;20329;-76
2021/05/10 13:16:52;;;;;;;;;;;27.30;34.20;;;;;;5029810;28;19968;-76
2021/05/10 13:20:00;;;;;;;;;;;27.20;34.20;;;;;;5017398;28;19941;-76
2021/05/10 13:33:25;;;;;;;;;;;27.60;33.90;;;;;;5037473;28;20026;-75
2021/05/10 13:38:20;;;;;;;;;;;27.50;35.10;;;;;;5041058;28;19929;-75
2021/05/10 13:40:47;;;;;;;;;;;27.40;37.80;;;;;;5041468;28;19972;-74
2021/05/10 13:45:41;;;;;;;;;;;27.20;37.90;;;;;;5038099;28;19991;-75
2021/05/10 13:48:07;;;;;;;;;;;27.10;40.00;;;;;;5041002;28;20414;-71
2021/05/10 13:50:34;;;;;;;;;;;27.30;39.40;;;;;;5033079;28;19925;-70
2021/05/10 13:53:00;;;;;;;;;;;26.80;38.30;;;;;;5045138;28;19975;-72
2021/05/10 13:55:26;;;;;;;;;;;26.40;39.30;;;;;;5047414;28;20020;-72
2021/05/10 13:57:52;;;;;;;;;;;26.10;39.60;;;;;;5042546;28;20028;-72
2021/05/10 14:00:20;;;;;;;;;;;26.20;40.30;;;;;;5045692;28;19997;-72
2021/05/10 14:02:50;;;;;;;;;;;26.10;41.00;;;;;;5042072;28;20035;-72
2021/05/10 14:05:17;;;;;;;;;;;26.10;40.00;;;;;;5046505;28;19929;-75
2021/05/10 14:07:43;;;;;;;;;;;26.20;40.30;;;;;;5043721;28;19926;-72
2021/05/10 14:10:09;;;;;;;;;;;25.80;40.80;;;;;;5047076;28;20431;-72
2021/05/10 14:12:35;;;;;;;;;;;25.80;40.20;;;;;;5027095;28;19925;-72
2021/05/10 14:15:01;;;;;;;;;;;25.70;41.10;;;;;;5049036;28;20003;-73
2021/05/10 14:17:27;;;;;;;;;;;25.70;40.40;;;;;;5046780;28;20408;-73
2021/05/10 14:19:54;;;;;;;;;;;25.70;40.50;;;;;;5032502;28;20027;-73
2021/05/10 14:22:20;;;;;;;;;;;25.60;41.30;;;;;;5030674;28;20016;-74
2021/05/10 14:24:46;;;;;;;;;;;25.80;41.60;;;;;;5048570;28;19929;-75
2021/05/10 14:27:12;;;;;;;;;;;26.10;41.40;;;;;;5045389;28;19975;-76
2021/05/10 14:29:38;;;;;;;;;;;26.20;40.70;;;;;;5032668;28;20380;-70
2021/05/10 14:32:05;;;;;;;;;;;26.00;40.20;;;;;;5048659;28;19929;-71
2021/05/10 14:34:31;;;;;;;;;;;26.00;39.60;;;;;;5047955;28;20235;-72
2021/05/10 14:36:57;;;;;;;;;;;25.90;40.70;;;;;;5005269;28;20446;-79
2021/05/10 14:39:23;;;;;;;;;;;25.90;41.10;;;;;;5017948;28;20415;-71
2021/05/10 14:41:49;;;;;;;;;;;25.90;41.70;;;;;;5041998;28;19968;-74
2021/05/10 14:44:16;;;;;;;;;;;26.10;40.20;;;;;;5033152;28;19936;-74
2021/05/10 14:46:42;;;;;;;;;;;26.00;40.80;;;;;;5025674;28;19933;-69
2021/05/10 14:49:09;;;;;;;;;;;26.20;39.70;;;;;;5028528;28;19936;-72
2021/05/10 14:51:35;;;;;;;;;;;26.00;39.80;;;;;;5016866;28;20419;-77